This is the latest recevied weather packets stored in our database for station/object YD2APR-13. If no packets are shown the sender has not sent any weather packets the latest 10 day(s).
| Time | Temp. | Humidity | Pressure | Rain* | Wind** | Luminosity | Snow |
|---|---|---|---|---|---|---|---|
| 1777711800 | 32.78° C | 57% | 1012.5 hPa | - | - | - | - |
| 1777711200 | 32.78° C | 57% | 1012.5 hPa | - | - | - | - |
| 1777710605 | 32.78° C | 58% | 1012.6 hPa | - | - | - | - |
| 1777710063 | 32.22° C | 58% | 1012.5 hPa | - | - | - | - |
| 1777709463 | 32.22° C | 58% | 1012.4 hPa | - | - | - | - |
| 1777708863 | 32.78° C | 56% | 1012.4 hPa | - | - | - | - |
| 1777708263 | 34.44° C | 50% | 1012.5 hPa | - | - | - | - |
| 1777707663 | 34.44° C | 50% | 1012.5 hPa | - | - | - | - |
| 1777707063 | 34.44° C | 50% | 1012.5 hPa | - | - | - | - |
| 1777706463 | 34.44° C | 49% | 1012.6 hPa | - | - | - | - |
| 1777705863 | 35.56° C | 47% | 1012.8 hPa | - | - | - | - |
| 1777705263 | 35° C | 48% | 1013.1 hPa | - | - | - | - |
| 1777704663 | 33.89° C | 51% | 1013.2 hPa | - | - | - | - |
| 1777704064 | 35.56° C | 49% | 1013.5 hPa | - | - | - | - |
| 1777703464 | 35.56° C | 49% | 1013.7 hPa | - | - | - | - |
| 1777702863 | 34.44° C | 51% | 1013.8 hPa | - | - | - | - |
| 1777702262 | 35° C | 50% | 1014 hPa | - | - | - | - |
| 1777701662 | 35° C | 49% | 1014.2 hPa | - | - | - | - |
| 1777701064 | 34.44° C | 50% | 1014.3 hPa | - | - | - | - |
| 1777700463 | 34.44° C | 50% | 1014.4 hPa | - | - | - | - |
| 1777699863 | 32.22° C | 54% | 1014.5 hPa | - | - | - | - |
| 1777699262 | 33.33° C | 54% | 1014.7 hPa | - | - | - | - |
| 1777698663 | 33.89° C | 52% | 1014.9 hPa | - | - | - | - |
| 1777698063 | 33.33° C | 54% | 1015 hPa | - | - | - | - |
| 1777697462 | 35° C | 50% | 1015 hPa | - | - | - | - |
* Rain since midnight (hover to see other rain measurements)
** Current wind speed in m/s (hover to see current wind gust speed)